Terminal Aerodrome Forecast
Issued by NWS

Home | Current Version | Previous Version | Text Only | Print | Product List | Glossary On
Versions: 1 2 3 4 5 6 7 8 9 10 11 12 13 14 15 16 17 18 19
000
FTUS44 KLZK 202000 AAA
TAFPBF
TAF AMD
KPBF 202027Z 2020/2118 05005KT P6SM SCT050
     FM210100 06003KT P6SM SCT060 SCT250
      TEMPO 2109/2113 5SM BR=

USA.gov is the U.S. government's official web portal to all federal, state and local government web resources and services.